METAR Data
IDs: Format: Raw Decoded Include TAF

Data at: 2211 UTC 01 Dec 2021

METAR for:KCMH (Columbus Intl, OH, US)
Text:KCMH 012151Z 13007KT 9SM FEW015 OVC049 07/05 A2991 RMK AO2 SLP133 T00670050
Temperature: 6.7°C ( 44°F)
Dewpoint: 5.0°C ( 41°F) [RH = 89%]
Pressure (altimeter):29.91 inches Hg (1013.0 mb) [Sea level pressure: 1013.3 mb]
Winds:from the SE (130 degrees) at 8 MPH (7 knots; 3.6 m/s)
Visibility: 9 sm ( 14 km)
Ceiling:4900 feet AGL
Clouds: few clouds at 1500 feet AGL, overcast cloud deck at 4900 feet AGL